Time;durP1;ratioP1;P1;durP2;ratioP2;P2;SDS_P1;SDS_P2;PMS_P1;PMS_P2;Temp;Humidity;BMP_temperature;BMP_pressure;BME280_temperature;BME280_humidity;BME280_pressure;Samples;Min_cycle;Max_cycle;Signal;HPM_P1;HPM_P2
2023/01/31 00:00:18;;;;;;;11.90;3.25;;;;;;;;;;5080454;28;20429;-78
2023/01/31 00:02:44;;;;;;;16.73;4.45;;;;;;;;;;5086897;28;20176;-77
2023/01/31 00:05:10;;;;;;;18.48;3.92;;;;;;;;;;5082321;28;20187;-78
2023/01/31 00:07:36;;;;;;;23.15;4.20;;;;;;;;;;5088373;28;20231;-80
2023/01/31 00:10:02;;;;;;;15.00;3.67;;;;;;;;;;5094002;28;20262;-78
2023/01/31 00:12:28;;;;;;;19.55;4.45;;;;;;;;;;5097532;28;20421;-78
2023/01/31 00:14:54;;;;;;;18.25;4.13;;;;;;;;;;5091057;28;20185;-78
2023/01/31 00:17:20;;;;;;;25.08;4.47;;;;;;;;;;5093974;28;20551;-78
2023/01/31 00:19:46;;;;;;;17.50;4.37;;;;;;;;;;5100934;28;20188;-78
2023/01/31 00:22:12;;;;;;;22.23;5.40;;;;;;;;;;5082476;28;20423;-78
2023/01/31 00:24:38;;;;;;;10.97;3.40;;;;;;;;;;5081841;28;20434;-82
2023/01/31 00:27:04;;;;;;;12.07;3.87;;;;;;;;;;5083897;28;20482;-78
2023/01/31 00:29:30;;;;;;;25.20;4.53;;;;;;;;;;5078638;28;20427;-78
2023/01/31 00:31:56;;;;;;;12.50;3.38;;;;;;;;;;5085204;28;20490;-78
2023/01/31 00:34:22;;;;;;;23.73;4.25;;;;;;;;;;5104172;28;20263;-78
2023/01/31 00:36:48;;;;;;;13.20;3.60;;;;;;;;;;5077093;28;20212;-78
2023/01/31 00:39:14;;;;;;;17.73;3.63;;;;;;;;;;5087949;28;20427;-78
2023/01/31 00:41:40;;;;;;;20.50;5.00;;;;;;;;;;5095510;28;20926;-80
2023/01/31 00:44:06;;;;;;;13.90;3.67;;;;;;;;;;5087439;28;20515;-78
2023/01/31 00:46:32;;;;;;;15.50;4.38;;;;;;;;;;5094055;28;20441;-78
2023/01/31 00:48:58;;;;;;;14.65;3.55;;;;;;;;;;5091245;28;20226;-78
2023/01/31 00:51:25;;;;;;;14.95;4.05;;;;;;;;;;5082299;28;20189;-78
2023/01/31 00:53:51;;;;;;;24.27;4.65;;;;;;;;;;5093842;28;20282;-78
2023/01/31 00:56:21;;;;;;;16.43;4.80;;;;;;;;;;5083022;28;20207;-78
2023/01/31 00:58:48;;;;;;;11.70;3.83;;;;;;;;;;5078782;28;20415;-78
2023/01/31 01:01:20;;;;;;;23.25;3.80;;;;;;;;;;5089663;28;20183;-78
2023/01/31 01:03:46;;;;;;;21.95;3.92;;;;;;;;;;5095370;28;20597;-77
2023/01/31 01:06:12;;;;;;;15.35;3.15;;;;;;;;;;5100188;28;20192;-78
2023/01/31 01:08:39;;;;;;;20.35;3.72;;;;;;;;;;5098853;28;20582;-78
2023/01/31 01:11:22;;;;;;;21.90;4.45;;;;;;;;;;5100115;28;20184;-78
2023/01/31 01:13:48;;;;;;;12.50;3.47;;;;;;;;;;5099950;28;20162;-78
2023/01/31 01:16:16;;;;;;;8.48;3.10;;;;;;;;;;5099189;28;20532;-78
2023/01/31 01:18:44;;;;;;;10.70;2.95;;;;;;;;;;5098249;28;20247;-79
2023/01/31 01:21:14;;;;;;;18.33;5.45;;;;;;;;;;5100177;28;20171;-78
2023/01/31 01:23:40;;;;;;;16.98;4.40;;;;;;;;;;5100549;28;20174;-78
2023/01/31 01:26:12;;;;;;;16.92;3.63;;;;;;;;;;5100280;28;20175;-78
2023/01/31 01:28:38;;;;;;;10.55;3.97;;;;;;;;;;5098908;28;20204;-78
2023/01/31 01:31:06;;;;;;;20.83;4.30;;;;;;;;;;5081855;28;20187;-78
2023/01/31 01:33:32;;;;;;;18.60;3.78;;;;;;;;;;5098566;28;20910;-78
2023/01/31 01:36:01;;;;;;;23.30;3.73;;;;;;;;;;5097722;28;20232;-78
2023/01/31 01:38:27;;;;;;;18.15;3.13;;;;;;;;;;5098264;28;20508;-78
2023/01/31 01:40:53;;;;;;;13.07;3.25;;;;;;;;;;5081513;28;20176;-78
2023/01/31 01:43:19;;;;;;;18.97;4.23;;;;;;;;;;5098629;28;20191;-78
2023/01/31 01:45:46;;;;;;;17.30;3.97;;;;;;;;;;5081453;28;20414;-78
2023/01/31 01:48:13;;;;;;;12.35;3.30;;;;;;;;;;5099307;28;20457;-78
2023/01/31 01:50:42;;;;;;;8.25;3.58;;;;;;;;;;5098143;28;20180;-78
2023/01/31 01:53:16;;;;;;;13.35;4.07;;;;;;;;;;5098285;28;20176;-78
2023/01/31 01:55:58;;;;;;;15.88;3.78;;;;;;;;;;5099921;28;20213;-77
2023/01/31 01:58:27;;;;;;;20.50;4.00;;;;;;;;;;5099360;28;20172;-78
2023/01/31 02:00:53;;;;;;;11.23;3.22;;;;;;;;;;5097745;28;20177;-78
2023/01/31 02:03:19;;;;;;;10.52;4.40;;;;;;;;;;5098125;28;20180;-78
2023/01/31 02:05:49;;;;;;;11.77;3.22;;;;;;;;;;5097147;28;20560;-78
2023/01/31 02:08:16;;;;;;;12.45;3.45;;;;;;;;;;5096939;28;20638;-78
2023/01/31 02:10:42;;;;;;;14.02;3.92;;;;;;;;;;5099819;28;20186;-78
2023/01/31 02:13:09;;;;;;;15.93;3.23;;;;;;;;;;5097513;28;20197;-78
2023/01/31 02:15:35;;;;;;;13.68;4.03;;;;;;;;;;5099669;28;20406;-78
2023/01/31 02:18:01;;;;;;;14.70;3.58;;;;;;;;;;5098384;28;20191;-77
2023/01/31 02:20:35;;;;;;;19.17;5.25;;;;;;;;;;5098194;28;20172;-78
2023/01/31 02:23:07;;;;;;;28.05;4.22;;;;;;;;;;5098458;28;20168;-78
2023/01/31 02:25:45;;;;;;;12.30;2.88;;;;;;;;;;5099353;28;20594;-78
2023/01/31 02:28:30;;;;;;;21.15;3.60;;;;;;;;;;5099198;28;20210;-78
2023/01/31 02:30:55;;;;;;;15.55;5.63;;;;;;;;;;5097104;28;20627;-78
2023/01/31 02:33:28;;;;;;;16.63;2.90;;;;;;;;;;5098851;28;20252;-78
2023/01/31 02:36:12;;;;;;;16.00;4.50;;;;;;;;;;5097111;28;20425;-78
2023/01/31 02:38:42;;;;;;;16.38;3.22;;;;;;;;;;5097620;28;20526;-78
2023/01/31 02:41:14;;;;;;;16.20;3.55;;;;;;;;;;5098369;28;20153;-78
2023/01/31 02:46:51;;;;;;;17.27;4.95;;;;;;;;;;5098280;28;20167;-78
2023/01/31 02:49:33;;;;;;;15.63;3.70;;;;;;;;;;5098677;28;20226;-78
2023/01/31 02:52:15;;;;;;;13.07;4.32;;;;;;;;;;5097967;28;20164;-78
2023/01/31 02:57:27;;;;;;;24.52;5.15;;;;;;;;;;5098207;28;20663;-78
2023/01/31 02:59:53;;;;;;;10.68;3.75;;;;;;;;;;5097389;28;20183;-78
2023/01/31 03:02:20;;;;;;;11.50;2.50;;;;;;;;;;5098177;28;20172;-78
2023/01/31 03:04:47;;;;;;;12.02;4.35;;;;;;;;;;5098417;28;20585;-78
2023/01/31 03:07:15;;;;;;;24.50;4.90;;;;;;;;;;5079769;28;20243;-78
2023/01/31 03:10:09;;;;;;;11.75;3.25;;;;;;;;;;5098161;28;20633;-78
2023/01/31 03:12:40;;;;;;;17.80;4.20;;;;;;;;;;5097807;28;20681;-78
2023/01/31 03:15:20;;;;;;;18.92;3.65;;;;;;;;;;5096432;28;20171;-78
2023/01/31 03:17:45;;;;;;;13.20;3.92;;;;;;;;;;5095985;28;20230;-78
2023/01/31 03:20:12;;;;;;;16.87;3.30;;;;;;;;;;5097402;28;20167;-78
2023/01/31 03:22:39;;;;;;;8.43;3.38;;;;;;;;;;5096706;28;20517;-78
2023/01/31 03:25:07;;;;;;;16.15;3.65;;;;;;;;;;5097896;28;20174;-78
2023/01/31 03:27:34;;;;;;;7.82;3.28;;;;;;;;;;5096919;28;20203;-78
2023/01/31 03:30:12;;;;;;;14.20;3.30;;;;;;;;;;5097208;28;20642;-78
2023/01/31 03:32:42;;;;;;;13.32;4.00;;;;;;;;;;5096742;28;20171;-78
2023/01/31 03:35:08;;;;;;;23.77;4.10;;;;;;;;;;5097097;28;20501;-78
2023/01/31 03:37:40;;;;;;;13.98;3.92;;;;;;;;;;5097270;28;20192;-77
2023/01/31 03:40:12;;;;;;;22.83;4.82;;;;;;;;;;5097245;28;20216;-78
2023/01/31 03:42:38;;;;;;;19.65;4.57;;;;;;;;;;5097434;28;20177;-78
2023/01/31 03:45:27;;;;;;;23.60;4.00;;;;;;;;;;5098076;28;20671;-78
2023/01/31 03:47:54;;;;;;;13.60;4.88;;;;;;;;;;5098132;28;20468;-78
2023/01/31 03:50:24;;;;;;;25.35;4.28;;;;;;;;;;5098757;28;20167;-77
2023/01/31 03:53:05;;;;;;;16.80;4.25;;;;;;;;;;5096679;28;20179;-83
2023/01/31 03:55:34;;;;;;;12.30;4.10;;;;;;;;;;5098519;28;20161;-78
2023/01/31 03:58:02;;;;;;;11.73;4.55;;;;;;;;;;5098146;28;20713;-77
2023/01/31 04:00:28;;;;;;;10.43;4.57;;;;;;;;;;5098126;28;20186;-77
2023/01/31 04:03:06;;;;;;;14.80;4.00;;;;;;;;;;5096766;28;20180;-75
2023/01/31 04:05:33;;;;;;;15.30;4.18;;;;;;;;;;5097449;28;20174;-78
2023/01/31 04:07:59;;;;;;;17.60;4.15;;;;;;;;;;5096158;28;20236;-78
2023/01/31 04:10:25;;;;;;;14.45;4.68;;;;;;;;;;5098095;28;20178;-77
2023/01/31 04:12:51;;;;;;;15.82;5.88;;;;;;;;;;5096218;28;20176;-80
2023/01/31 04:15:17;;;;;;;22.13;4.78;;;;;;;;;;5096786;28;20197;-78
2023/01/31 04:17:43;;;;;;;19.30;4.65;;;;;;;;;;5098514;28;20209;-78
2023/01/31 04:20:10;;;;;;;17.35;6.53;;;;;;;;;;5096608;28;20202;-77
2023/01/31 04:22:36;;;;;;;21.25;7.75;;;;;;;;;;5097886;28;20167;-78
2023/01/31 04:25:03;;;;;;;23.92;6.97;;;;;;;;;;5096226;28;20187;-78
2023/01/31 04:27:29;;;;;;;15.00;6.00;;;;;;;;;;5097804;28;20622;-77
2023/01/31 04:29:55;;;;;;;22.30;6.83;;;;;;;;;;5098826;28;20172;-77
2023/01/31 04:32:20;;;;;;;18.73;6.17;;;;;;;;;;5100324;28;20958;-78
2023/01/31 04:34:46;;;;;;;18.67;5.80;;;;;;;;;;5101450;28;20751;-77
2023/01/31 04:37:12;;;;;;;26.17;8.77;;;;;;;;;;5101839;28;20538;-77
2023/01/31 04:39:38;;;;;;;15.75;6.25;;;;;;;;;;5083542;28;20421;-77
2023/01/31 04:42:04;;;;;;;25.67;8.40;;;;;;;;;;5083144;28;20518;-78
2023/01/31 04:44:30;;;;;;;19.67;7.47;;;;;;;;;;5100158;28;20424;-78
2023/01/31 04:46:56;;;;;;;33.60;8.67;;;;;;;;;;5099905;28;20212;-78
2023/01/31 04:49:22;;;;;;;26.03;8.97;;;;;;;;;;5099914;28;20548;-78
2023/01/31 04:51:48;;;;;;;19.60;8.17;;;;;;;;;;5083652;28;20509;-75
2023/01/31 04:54:15;;;;;;;16.20;7.23;;;;;;;;;;5101352;28;20794;-75
2023/01/31 04:56:41;;;;;;;28.55;8.15;;;;;;;;;;5099549;28;20413;-78
2023/01/31 04:59:07;;;;;;;24.13;8.13;;;;;;;;;;5100916;28;20179;-77
2023/01/31 05:01:33;;;;;;;19.75;8.27;;;;;;;;;;5099633;28;20414;-78
2023/01/31 05:03:59;;;;;;;20.30;7.05;;;;;;;;;;5082263;28;20525;-78
2023/01/31 05:06:25;;;;;;;26.85;7.43;;;;;;;;;;5099208;28;20186;-78
2023/01/31 05:08:53;;;;;;;23.73;6.80;;;;;;;;;;5101185;28;20206;-78
2023/01/31 05:11:19;;;;;;;19.02;7.82;;;;;;;;;;5099186;28;20424;-78
2023/01/31 05:13:46;;;;;;;23.38;7.25;;;;;;;;;;5100897;28;20179;-77
2023/01/31 05:16:13;;;;;;;33.58;9.98;;;;;;;;;;5098869;28;20218;-77
2023/01/31 05:18:39;;;;;;;28.75;8.10;;;;;;;;;;5100824;28;20569;-77
2023/01/31 05:21:06;;;;;;;28.80;8.65;;;;;;;;;;5098805;28;20176;-78
2023/01/31 05:23:32;;;;;;;16.65;8.23;;;;;;;;;;5100627;28;20181;-78
2023/01/31 05:25:58;;;;;;;33.38;8.93;;;;;;;;;;5098778;28;20232;-78
2023/01/31 05:28:24;;;;;;;20.98;7.78;;;;;;;;;;5100514;28;20206;-77
2023/01/31 05:30:51;;;;;;;29.85;9.30;;;;;;;;;;5081889;28;20229;-77
2023/01/31 05:33:19;;;;;;;23.73;7.80;;;;;;;;;;5098630;28;20185;-77
2023/01/31 05:35:45;;;;;;;24.13;7.93;;;;;;;;;;5098544;28;20175;-78
2023/01/31 05:38:11;;;;;;;25.52;8.38;;;;;;;;;;5098145;28;20192;-78
2023/01/31 05:40:37;;;;;;;22.33;7.40;;;;;;;;;;5098099;28;20194;-78
2023/01/31 05:43:03;;;;;;;25.30;7.90;;;;;;;;;;5081742;28;20463;-78
2023/01/31 05:45:30;;;;;;;27.85;7.55;;;;;;;;;;5100335;28;20182;-77
2023/01/31 05:47:56;;;;;;;25.83;7.47;;;;;;;;;;5098936;28;20208;-78
2023/01/31 05:50:22;;;;;;;18.88;6.93;;;;;;;;;;5098524;28;20534;-78
2023/01/31 05:52:52;;;;;;;20.20;6.60;;;;;;;;;;5081789;28;20514;-77
2023/01/31 05:55:18;;;;;;;17.42;6.45;;;;;;;;;;5098177;28;20179;-78
2023/01/31 05:57:44;;;;;;;18.52;6.55;;;;;;;;;;5098499;28;20606;-78
2023/01/31 06:00:11;;;;;;;16.10;6.57;;;;;;;;;;5099849;28;20167;-77
2023/01/31 06:02:37;;;;;;;28.65;9.30;;;;;;;;;;5099641;28;20223;-78
2023/01/31 06:05:03;;;;;;;17.77;7.50;;;;;;;;;;5098231;28;20179;-78
2023/01/31 06:07:29;;;;;;;26.65;7.50;;;;;;;;;;5099319;28;20984;-77
2023/01/31 06:09:55;;;;;;;28.33;8.00;;;;;;;;;;5100301;28;20201;-77
2023/01/31 06:12:21;;;;;;;22.73;5.97;;;;;;;;;;5098231;28;20407;-77
2023/01/31 06:14:48;;;;;;;25.05;7.07;;;;;;;;;;5098610;28;20418;-78
2023/01/31 06:17:14;;;;;;;12.95;5.20;;;;;;;;;;5097443;28;20186;-78
2023/01/31 06:19:40;;;;;;;19.73;7.15;;;;;;;;;;5081768;28;20572;-78
2023/01/31 06:22:06;;;;;;;26.27;5.70;;;;;;;;;;5097662;28;20184;-77
2023/01/31 06:24:32;;;;;;;22.70;5.80;;;;;;;;;;5097922;28;20410;-77
2023/01/31 06:26:58;;;;;;;19.23;5.90;;;;;;;;;;5098605;28;20469;-78
2023/01/31 06:29:24;;;;;;;17.50;5.55;;;;;;;;;;5097625;28;20421;-78
2023/01/31 06:31:50;;;;;;;17.45;5.22;;;;;;;;;;5097265;28;20187;-78
2023/01/31 06:34:16;;;;;;;20.52;4.78;;;;;;;;;;5097361;28;20538;-78
2023/01/31 06:36:42;;;;;;;20.58;5.97;;;;;;;;;;5098567;28;20177;-78
2023/01/31 06:39:08;;;;;;;16.73;5.13;;;;;;;;;;5080834;28;20176;-78
2023/01/31 06:41:34;;;;;;;21.57;5.27;;;;;;;;;;5098729;28;20414;-78
2023/01/31 06:44:00;;;;;;;24.87;5.30;;;;;;;;;;5098655;28;20408;-77
2023/01/31 06:46:26;;;;;;;18.52;4.28;;;;;;;;;;5097479;28;20411;-77
2023/01/31 06:48:51;;;;;;;16.90;5.63;;;;;;;;;;5097130;28;20679;-77
2023/01/31 06:51:17;;;;;;;17.50;5.07;;;;;;;;;;5096186;28;20513;-78
2023/01/31 06:53:43;;;;;;;14.05;3.67;;;;;;;;;;5097662;28;20421;-77
2023/01/31 06:56:10;;;;;;;24.80;5.43;;;;;;;;;;5097351;28;20174;-77
2023/01/31 06:58:36;;;;;;;11.10;3.45;;;;;;;;;;5098015;28;20913;-77
2023/01/31 07:01:09;;;;;;;11.33;4.33;;;;;;;;;;5098072;28;20226;-79
2023/01/31 07:03:35;;;;;;;13.15;5.10;;;;;;;;;;5097549;28;20769;-77
2023/01/31 07:06:01;;;;;;;15.77;4.82;;;;;;;;;;5098010;28;20221;-80
2023/01/31 07:08:28;;;;;;;19.05;5.03;;;;;;;;;;5097611;28;20636;-77
2023/01/31 07:10:54;;;;;;;13.93;4.03;;;;;;;;;;5097394;28;20168;-77
2023/01/31 07:13:20;;;;;;;12.35;3.95;;;;;;;;;;5098492;28;20237;-77
2023/01/31 07:15:45;;;;;;;12.87;3.90;;;;;;;;;;5098511;28;20178;-77
2023/01/31 07:18:11;;;;;;;17.73;5.50;;;;;;;;;;5096846;28;20507;-77
2023/01/31 07:20:41;;;;;;;14.52;4.53;;;;;;;;;;5097588;28;20894;-77
2023/01/31 07:23:07;;;;;;;12.10;4.45;;;;;;;;;;5098132;28;20205;-77
2023/01/31 07:25:34;;;;;;;14.45;4.30;;;;;;;;;;5096740;28;20183;-77
2023/01/31 07:28:00;;;;;;;18.48;4.18;;;;;;;;;;5096712;28;20554;-77
2023/01/31 07:30:26;;;;;;;22.50;4.85;;;;;;;;;;5096787;28;20196;-77
2023/01/31 07:32:52;;;;;;;16.90;4.53;;;;;;;;;;5097828;28;20176;-77
2023/01/31 07:35:18;;;;;;;19.20;4.15;;;;;;;;;;5097920;28;20413;-77
2023/01/31 07:37:44;;;;;;;12.02;3.95;;;;;;;;;;5080220;28;20256;-77
2023/01/31 07:40:11;;;;;;;8.13;3.13;;;;;;;;;;5097651;28;20176;-77
2023/01/31 07:42:37;;;;;;;16.67;4.25;;;;;;;;;;5096619;28;20179;-77
2023/01/31 07:45:03;;;;;;;18.67;5.40;;;;;;;;;;5097772;28;20176;-77
2023/01/31 07:47:29;;;;;;;11.52;3.85;;;;;;;;;;5095988;28;20215;-77
2023/01/31 07:49:55;;;;;;;14.20;4.03;;;;;;;;;;5097756;28;20186;-77
2023/01/31 07:52:21;;;;;;;14.07;3.73;;;;;;;;;;5096135;28;20184;-77
2023/01/31 07:54:47;;;;;;;9.85;4.18;;;;;;;;;;5096201;28;20406;-77
2023/01/31 07:57:16;;;;;;;7.20;2.87;;;;;;;;;;5095945;28;20590;-77
2023/01/31 07:59:43;;;;;;;16.17;3.47;;;;;;;;;;5096154;28;20937;-77
2023/01/31 08:04:56;;;;;;;12.23;3.08;;;;;;;;;;5097604;28;20643;-77
2023/01/31 08:07:22;;;;;;;10.87;2.90;;;;;;;;;;5096290;28;20235;-77
2023/01/31 08:09:49;;;;;;;10.03;3.00;;;;;;;;;;5096258;28;20812;-77
2023/01/31 08:12:15;;;;;;;13.15;3.00;;;;;;;;;;5096729;28;20416;-77
2023/01/31 08:14:41;;;;;;;16.33;3.15;;;;;;;;;;5098080;28;20255;-77
2023/01/31 08:17:07;;;;;;;12.70;3.17;;;;;;;;;;5096516;28;20207;-80
2023/01/31 08:19:33;;;;;;;16.47;3.33;;;;;;;;;;5079446;28;20202;-77
2023/01/31 08:21:59;;;;;;;11.52;4.88;;;;;;;;;;5097646;28;20410;-77
2023/01/31 08:24:25;;;;;;;9.30;3.72;;;;;;;;;;5095674;28;20610;-77
2023/01/31 08:26:51;;;;;;;12.73;2.95;;;;;;;;;;5097980;28;20187;-77
2023/01/31 08:29:18;;;;;;;14.30;3.33;;;;;;;;;;5096771;28;20184;-78
2023/01/31 08:31:43;;;;;;;7.55;2.63;;;;;;;;;;5096362;28;20647;-78
2023/01/31 08:34:10;;;;;;;10.50;3.17;;;;;;;;;;5079005;28;20176;-79
2023/01/31 08:36:36;;;;;;;9.85;3.25;;;;;;;;;;5097330;28;20424;-78
2023/01/31 08:39:03;;;;;;;14.45;3.42;;;;;;;;;;5096111;28;20225;-78
2023/01/31 08:41:30;;;;;;;10.27;3.35;;;;;;;;;;5096642;28;20168;-78
2023/01/31 08:43:56;;;;;;;10.48;3.13;;;;;;;;;;5096757;28;20199;-78
2023/01/31 08:46:28;;;;;;;11.80;3.40;;;;;;;;;;5095375;28;20280;-78
2023/01/31 08:48:54;;;;;;;13.77;3.58;;;;;;;;;;5095864;28;20260;-77
2023/01/31 08:51:20;;;;;;;6.25;3.38;;;;;;;;;;5095371;28;20179;-78
2023/01/31 08:53:47;;;;;;;12.68;3.20;;;;;;;;;;5097221;28;20168;-78
2023/01/31 08:56:14;;;;;;;11.57;3.00;;;;;;;;;;5078413;28;20188;-78
2023/01/31 08:58:41;;;;;;;14.50;3.10;;;;;;;;;;5095363;28;20180;-78
2023/01/31 09:01:08;;;;;;;14.57;3.25;;;;;;;;;;5096225;28;20179;-78
2023/01/31 09:03:34;;;;;;;12.48;3.70;;;;;;;;;;5096591;28;20184;-78
2023/01/31 09:06:01;;;;;;;14.20;3.50;;;;;;;;;;5095733;28;20250;-78
2023/01/31 09:08:27;;;;;;;9.13;2.83;;;;;;;;;;5096579;28;20230;-78
2023/01/31 09:10:53;;;;;;;11.50;3.67;;;;;;;;;;5096171;28;20498;-78
2023/01/31 09:13:20;;;;;;;18.13;4.55;;;;;;;;;;5096506;28;20168;-78
2023/01/31 09:15:45;;;;;;;13.82;3.92;;;;;;;;;;5099031;28;20164;-78
2023/01/31 09:18:11;;;;;;;10.23;3.30;;;;;;;;;;5100282;28;20708;-77
2023/01/31 09:20:37;;;;;;;10.60;3.08;;;;;;;;;;5099092;28;20417;-78
2023/01/31 09:23:03;;;;;;;9.37;2.80;;;;;;;;;;5100122;28;20176;-78
2023/01/31 09:25:29;;;;;;;18.13;3.60;;;;;;;;;;5098724;28;20765;-78
2023/01/31 09:27:55;;;;;;;13.40;3.63;;;;;;;;;;5082102;28;20501;-78
2023/01/31 09:30:21;;;;;;;8.05;3.38;;;;;;;;;;5098930;28;20550;-78
2023/01/31 09:32:48;;;;;;;11.93;3.60;;;;;;;;;;5099257;28;20172;-78
2023/01/31 09:35:15;;;;;;;13.73;3.50;;;;;;;;;;5099081;28;20405;-78
2023/01/31 09:37:41;;;;;;;15.93;3.97;;;;;;;;;;5098724;28;20183;-78
2023/01/31 09:40:07;;;;;;;21.27;4.10;;;;;;;;;;5099221;28;20241;-78
2023/01/31 09:42:33;;;;;;;13.38;3.80;;;;;;;;;;5098604;28;20184;-78
2023/01/31 09:44:59;;;;;;;12.13;3.40;;;;;;;;;;5099713;28;20229;-78
2023/01/31 09:47:27;;;;;;;10.88;3.60;;;;;;;;;;5098364;28;20882;-78
2023/01/31 09:50:31;;;;;;;11.35;2.55;;;;;;;;;;5099763;28;20204;-78
2023/01/31 09:52:58;;;;;;;14.50;2.90;;;;;;;;;;5037582;28;20256;-78
2023/01/31 09:55:30;;;;;;;9.73;2.85;;;;;;;;;;5037234;28;20173;-78
2023/01/31 09:58:01;;;;;;;8.43;2.80;;;;;;;;;;5069371;28;20192;-78
2023/01/31 10:00:27;;;;;;;11.73;3.72;;;;;;;;;;5097907;28;20203;-78
2023/01/31 10:02:53;;;;;;;9.97;2.90;;;;;;;;;;5099272;28;20184;-78
2023/01/31 10:05:28;;;;;;;10.40;2.73;;;;;;;;;;5099583;28;20409;-78
2023/01/31 10:07:57;;;;;;;10.77;3.15;;;;;;;;;;5097544;28;20489;-78
2023/01/31 10:10:27;;;;;;;7.70;3.97;;;;;;;;;;5098996;28;20166;-78
2023/01/31 10:12:59;;;;;;;14.50;3.70;;;;;;;;;;5099689;28;20174;-78
2023/01/31 10:15:31;;;;;;;9.63;5.95;;;;;;;;;;5099271;28;20168;-78
2023/01/31 10:17:59;;;;;;;10.13;4.10;;;;;;;;;;5098142;28;20229;-78
2023/01/31 10:20:37;;;;;;;14.75;3.83;;;;;;;;;;5097749;28;20248;-78
2023/01/31 10:23:19;;;;;;;12.23;3.40;;;;;;;;;;5097940;28;20199;-78
2023/01/31 10:25:45;;;;;;;11.98;3.20;;;;;;;;;;5098083;28;20177;-78
2023/01/31 10:28:26;;;;;;;16.20;4.20;;;;;;;;;;5098934;28;20282;-78
2023/01/31 10:30:57;;;;;;;17.92;4.18;;;;;;;;;;5098806;28;20460;-78
2023/01/31 10:33:35;;;;;;;18.08;4.32;;;;;;;;;;5097555;28;20666;-78
2023/01/31 10:36:03;;;;;;;8.82;3.47;;;;;;;;;;5098951;28;20635;-78
2023/01/31 10:38:38;;;;;;;11.52;3.53;;;;;;;;;;5098680;28;20211;-78
2023/01/31 10:41:16;;;;;;;11.20;3.70;;;;;;;;;;5097583;28;20180;-78
2023/01/31 10:43:46;;;;;;;10.77;3.60;;;;;;;;;;5099003;28;20512;-78
2023/01/31 10:46:13;;;;;;;8.32;3.08;;;;;;;;;;5098787;28;20180;-78
2023/01/31 10:57:32;;;;;;;12.70;4.43;;;;;;;;;;5330277;22;20580;-75
2023/01/31 10:59:58;;;;;;;18.13;3.25;;;;;;;;;;5039561;28;20516;-75
2023/01/31 11:02:28;;;;;;;10.38;4.03;;;;;;;;;;5038436;28;20582;-75
2023/01/31 11:04:55;;;;;;;8.25;3.65;;;;;;;;;;5038227;28;20511;-75
2023/01/31 11:07:22;;;;;;;9.98;3.38;;;;;;;;;;5038014;28;20297;-75
2023/01/31 11:09:53;;;;;;;8.27;3.20;;;;;;;;;;5038390;28;20180;-75
2023/01/31 11:12:20;;;;;;;7.63;3.17;;;;;;;;;;5038625;28;20193;-73
2023/01/31 11:15:02;;;;;;;18.95;4.95;;;;;;;;;;5038486;28;20253;-75
2023/01/31 11:17:29;;;;;;;12.68;4.10;;;;;;;;;;5037076;28;20206;-75
2023/01/31 11:19:57;;;;;;;12.43;4.05;;;;;;;;;;5036824;28;20636;-75
2023/01/31 11:22:26;;;;;;;7.78;3.88;;;;;;;;;;5038545;28;20201;-74
2023/01/31 11:24:53;;;;;;;9.85;3.60;;;;;;;;;;5037683;28;20257;-75
2023/01/31 11:27:27;;;;;;;18.95;4.40;;;;;;;;;;5037475;28;20216;-75
2023/01/31 11:29:54;;;;;;;11.23;3.63;;;;;;;;;;5037891;28;20252;-75
2023/01/31 11:32:25;;;;;;;12.60;3.83;;;;;;;;;;5038272;28;20645;-73
2023/01/31 11:34:56;;;;;;;13.20;3.97;;;;;;;;;;5037726;28;20188;-74
2023/01/31 11:37:22;;;;;;;10.05;3.47;;;;;;;;;;5038017;28;20199;-74
2023/01/31 11:39:59;;;;;;;11.77;4.15;;;;;;;;;;5037917;28;20257;-74
2023/01/31 11:42:25;;;;;;;9.00;3.00;;;;;;;;;;5038178;28;20170;-75
2023/01/31 11:45:02;;;;;;;9.48;3.80;;;;;;;;;;5037274;28;20178;-74
2023/01/31 11:47:41;;;;;;;7.75;2.70;;;;;;;;;;5037467;28;20213;-75
2023/01/31 11:50:18;;;;;;;8.68;2.92;;;;;;;;;;5038535;28;20172;-75
2023/01/31 11:52:44;;;;;;;6.25;2.90;;;;;;;;;;5038226;28;20225;-75
2023/01/31 11:55:16;;;;;;;7.43;2.80;;;;;;;;;;5038108;28;20201;-75
2023/01/31 11:57:43;;;;;;;12.68;2.58;;;;;;;;;;5038075;28;20999;-75
2023/01/31 12:00:26;;;;;;;5.55;3.13;;;;;;;;;;5038276;28;20183;-74
2023/01/31 12:03:03;;;;;;;9.68;4.97;;;;;;;;;;5036160;28;20186;-74
2023/01/31 12:05:43;;;;;;;6.97;3.15;;;;;;;;;;5037573;28;20166;-75
2023/01/31 12:08:28;;;;;;;5.22;2.92;;;;;;;;;;5037746;28;20210;-75
2023/01/31 12:10:55;;;;;;;5.18;2.90;;;;;;;;;;5036509;28;20610;-75
2023/01/31 12:13:22;;;;;;;8.27;3.33;;;;;;;;;;5037601;28;20177;-75
2023/01/31 12:15:58;;;;;;;5.55;3.03;;;;;;;;;;5037225;28;20170;-75
2023/01/31 12:18:37;;;;;;;7.45;3.25;;;;;;;;;;5037794;28;20206;-74
2023/01/31 12:21:08;;;;;;;9.90;2.90;;;;;;;;;;5036963;28;20174;-75
2023/01/31 12:23:40;;;;;;;7.93;3.28;;;;;;;;;;5037643;28;20305;-75
2023/01/31 12:29:28;;;;;;;11.98;3.42;;;;;;;;;;5037192;28;20309;-75
2023/01/31 12:32:00;;;;;;;5.00;3.25;;;;;;;;;;5037238;28;20174;-74
2023/01/31 12:34:26;;;;;;;3.65;2.20;;;;;;;;;;5037809;28;20517;-75
2023/01/31 12:37:07;;;;;;;3.13;2.40;;;;;;;;;;5037050;28;20185;-75
2023/01/31 12:39:43;;;;;;;11.48;4.63;;;;;;;;;;5037838;28;20470;-75
2023/01/31 12:42:09;;;;;;;3.80;2.35;;;;;;;;;;5037606;28;20173;-74
2023/01/31 12:45:01;;;;;;;8.27;3.60;;;;;;;;;;5037830;28;20597;-74
2023/01/31 12:47:33;;;;;;;7.00;3.75;;;;;;;;;;5033815;28;20464;-75
2023/01/31 12:50:09;;;;;;;9.35;3.80;;;;;;;;;;5038358;28;20578;-74
2023/01/31 12:52:54;;;;;;;7.72;4.05;;;;;;;;;;5041477;28;20267;-75
2023/01/31 12:55:20;;;;;;;7.55;3.40;;;;;;;;;;5041387;28;20190;-75
2023/01/31 12:57:45;;;;;;;5.63;3.30;;;;;;;;;;5041473;28;20285;-75
2023/01/31 13:00:11;;;;;;;5.60;3.33;;;;;;;;;;5041877;28;20665;-75
2023/01/31 13:02:45;;;;;;;6.88;3.70;;;;;;;;;;5040526;28;20423;-75
2023/01/31 13:05:28;;;;;;;6.80;3.70;;;;;;;;;;5041895;28;20550;-75
2023/01/31 13:07:57;;;;;;;6.20;3.67;;;;;;;;;;5040811;28;20299;-75
2023/01/31 13:10:33;;;;;;;6.30;3.42;;;;;;;;;;5040772;28;20625;-74
2023/01/31 13:12:59;;;;;;;7.88;4.38;;;;;;;;;;5042795;28;20207;-74
2023/01/31 13:15:32;;;;;;;9.85;4.43;;;;;;;;;;5040997;28;20244;-75
2023/01/31 13:18:01;;;;;;;4.40;3.15;;;;;;;;;;5040901;28;20186;-75
2023/01/31 13:20:27;;;;;;;7.13;3.60;;;;;;;;;;5040394;28;20264;-74
2023/01/31 13:22:55;;;;;;;8.63;4.03;;;;;;;;;;5040258;28;20181;-75
2023/01/31 13:25:27;;;;;;;9.02;3.40;;;;;;;;;;5040846;28;20409;-75
2023/01/31 13:28:03;;;;;;;7.68;4.00;;;;;;;;;;5040364;28;20209;-74
2023/01/31 13:30:34;;;;;;;12.07;4.53;;;;;;;;;;5040845;28;20196;-74
2023/01/31 13:33:03;;;;;;;6.05;4.10;;;;;;;;;;5040593;28;20184;-74
2023/01/31 13:35:32;;;;;;;5.70;3.13;;;;;;;;;;5040482;28;20181;-74
2023/01/31 13:38:00;;;;;;;8.80;4.45;;;;;;;;;;5040103;28;20179;-74
2023/01/31 13:40:29;;;;;;;8.90;4.10;;;;;;;;;;5040127;28;20269;-75
2023/01/31 13:42:57;;;;;;;9.05;3.92;;;;;;;;;;5040553;28;20167;-75
2023/01/31 13:45:26;;;;;;;8.18;4.00;;;;;;;;;;5040803;28;20538;-75
2023/01/31 13:47:55;;;;;;;13.02;6.07;;;;;;;;;;5033312;28;20214;-75
2023/01/31 13:50:30;;;;;;;8.90;5.15;;;;;;;;;;5034792;28;20185;-74
2023/01/31 13:52:57;;;;;;;12.38;5.60;;;;;;;;;;5033254;28;20213;-75
2023/01/31 13:55:28;;;;;;;10.05;5.20;;;;;;;;;;5037360;28;20179;-74
2023/01/31 13:58:02;;;;;;;9.27;5.13;;;;;;;;;;5031518;28;20231;-74
2023/01/31 14:00:37;;;;;;;13.35;5.13;;;;;;;;;;5040049;28;20202;-75
2023/01/31 14:03:06;;;;;;;15.55;7.05;;;;;;;;;;5035790;28;20189;-75
2023/01/31 14:05:47;;;;;;;10.35;6.85;;;;;;;;;;5036004;28;20207;-75
2023/01/31 14:08:26;;;;;;;10.13;7.00;;;;;;;;;;5028570;28;20203;-74
2023/01/31 14:10:53;;;;;;;11.05;6.50;;;;;;;;;;5035224;28;20186;-74
2023/01/31 14:13:24;;;;;;;14.75;5.93;;;;;;;;;;5036670;28;20168;-75
2023/01/31 14:15:51;;;;;;;13.55;5.95;;;;;;;;;;5038109;28;20213;-74
2023/01/31 14:18:36;;;;;;;12.00;6.20;;;;;;;;;;5036430;28;20192;-74
2023/01/31 14:21:25;;;;;;;13.00;7.18;;;;;;;;;;5038986;28;20179;-74
2023/01/31 14:23:51;;;;;;;16.85;6.93;;;;;;;;;;5031945;28;20531;-75
2023/01/31 14:26:43;;;;;;;8.90;5.93;;;;;;;;;;5038376;28;20209;-75
2023/01/31 14:29:25;;;;;;;8.95;5.88;;;;;;;;;;5029847;28;20500;-73
2023/01/31 14:31:53;;;;;;;10.88;6.18;;;;;;;;;;5031230;28;20205;-73
2023/01/31 14:34:22;;;;;;;12.60;7.40;;;;;;;;;;5038879;28;20201;-73
2023/01/31 14:37:06;;;;;;;8.57;6.70;;;;;;;;;;5038089;28;20544;-73
2023/01/31 14:39:51;;;;;;;14.18;7.38;;;;;;;;;;5038809;28;20185;-72
2023/01/31 14:42:17;;;;;;;10.15;6.68;;;;;;;;;;5035066;28;20238;-73
2023/01/31 14:44:48;;;;;;;13.27;6.32;;;;;;;;;;5034589;28;20655;-74
2023/01/31 14:47:30;;;;;;;11.95;6.95;;;;;;;;;;5032827;28;20715;-73
2023/01/31 14:50:14;;;;;;;18.08;7.70;;;;;;;;;;5037857;28;20265;-75
2023/01/31 14:52:48;;;;;;;14.80;6.80;;;;;;;;;;5024243;28;20183;-75
2023/01/31 14:55:20;;;;;;;13.77;7.50;;;;;;;;;;5030071;28;20194;-76
2023/01/31 14:57:48;;;;;;;11.75;7.30;;;;;;;;;;5032471;28;20229;-75
2023/01/31 15:00:13;;;;;;;9.90;7.10;;;;;;;;;;5032986;28;20178;-75
2023/01/31 15:02:39;;;;;;;14.10;8.27;;;;;;;;;;5033867;28;20189;-74
2023/01/31 15:05:08;;;;;;;7.28;6.57;;;;;;;;;;5025056;28;20448;-75